Time;durP1;ratioP1;P1;durP2;ratioP2;P2;SDS_P1;SDS_P2;PMS_P1;PMS_P2;Temp;Humidity;BMP_temperature;BMP_pressure;BME280_temperature;BME280_humidity;BME280_pressure;Samples;Min_cycle;Max_cycle;Signal;HPM_P1;HPM_P2
2022/02/16 00:02:12;;;;;;;2.35;0.70;;;7.90;99.90;;;;;;5008614;28;20062;-75
2022/02/16 00:04:38;;;;;;;2.10;0.60;;;7.90;99.90;;;;;;5008489;28;20050;-75
2022/02/16 00:07:04;;;;;;;1.88;0.60;;;8.00;99.90;;;;;;4988680;28;20089;-75
2022/02/16 00:09:31;;;;;;;4.80;0.82;;;9.20;99.90;;;;;;4996265;28;20093;-75
2022/02/16 00:11:57;;;;;;;2.22;0.60;;;8.20;99.90;;;;;;5007506;28;20170;-75
2022/02/16 00:14:22;;;;;;;2.08;0.47;;;8.00;99.90;;;;;;4991046;28;20134;-75
2022/02/16 00:16:48;;;;;;;2.38;0.57;;;7.90;99.90;;;;;;4990388;28;20030;-75
2022/02/16 00:19:14;;;;;;;3.22;0.70;;;8.00;99.90;;;;;;4993979;28;20030;-74
2022/02/16 00:21:40;;;;;;;3.88;0.75;;;8.00;99.90;;;;;;5008321;28;20103;-75
2022/02/16 00:24:06;;;;;;;1.85;0.60;;;8.90;99.90;;;;;;5008408;28;20075;-74
2022/02/16 00:26:32;;;;;;;2.95;0.70;;;7.70;99.90;;;;;;5008132;28;20080;-75
2022/02/16 00:28:57;;;;;;;3.22;0.65;;;8.00;99.90;;;;;;5007547;28;20493;-75
2022/02/16 00:31:23;;;;;;;2.50;0.65;;;8.10;99.90;;;;;;5008215;28;20061;-74
2022/02/16 00:33:48;;;;;;;2.53;0.73;;;8.00;99.90;;;;;;5012449;28;20478;-75
2022/02/16 00:36:14;;;;;;;2.15;0.50;;;8.00;99.90;;;;;;5008177;28;20402;-75
2022/02/16 00:38:40;;;;;;;1.67;0.93;;;8.10;99.90;;;;;;5007503;28;20080;-75
2022/02/16 00:41:05;;;;;;;2.95;0.52;;;9.80;99.90;;;;;;4990278;28;20042;-75
2022/02/16 00:43:31;;;;;;;2.67;0.98;;;8.60;99.90;;;;;;5007823;28;20030;-75
2022/02/16 00:45:57;;;;;;;2.67;0.60;;;9.20;99.90;;;;;;5007421;28;20444;-75
2022/02/16 00:48:22;;;;;;;5.13;0.60;;;7.90;99.90;;;;;;5007928;28;20057;-75
2022/02/16 00:50:48;;;;;;;1.90;0.40;;;8.30;99.90;;;;;;5007959;28;20373;-75
2022/02/16 00:53:13;;;;;;;3.13;0.57;;;8.10;99.90;;;;;;5008324;28;20046;-75
2022/02/16 00:55:39;;;;;;;2.10;0.50;;;8.00;99.90;;;;;;4982327;28;20039;-75
2022/02/16 00:58:05;;;;;;;3.03;0.65;;;8.50;99.90;;;;;;4970914;28;20026;-75
2022/02/16 01:00:32;;;;;;;4.10;0.93;;;9.30;99.90;;;;;;5001814;28;20038;-75
2022/02/16 01:02:58;;;;;;;3.92;0.70;;;8.50;99.90;;;;;;5007789;28;20037;-75
2022/02/16 01:05:24;;;;;;;1.90;0.35;;;8.10;99.90;;;;;;4990483;28;20389;-75
2022/02/16 01:07:49;;;;;;;3.78;0.47;;;8.10;99.90;;;;;;5007573;28;20048;-75
2022/02/16 01:10:15;;;;;;;3.22;0.60;;;8.80;99.90;;;;;;4989529;28;20034;-75
2022/02/16 01:12:41;;;;;;;1.85;0.55;;;8.60;99.90;;;;;;5013978;28;20030;-75
2022/02/16 01:15:07;;;;;;;2.10;0.60;;;8.20;99.90;;;;;;5008809;28;20445;-75
2022/02/16 01:17:33;;;;;;;1.55;0.40;;;8.10;99.90;;;;;;4994567;28;20034;-75
2022/02/16 01:19:59;;;;;;;0.82;0.40;;;8.90;99.90;;;;;;4991380;28;20029;-75
2022/02/16 01:22:25;;;;;;;2.28;0.38;;;8.60;99.90;;;;;;5009256;28;20096;-75
2022/02/16 01:24:51;;;;;;;1.02;0.40;;;8.30;99.90;;;;;;5008558;28;20026;-75
2022/02/16 01:27:17;;;;;;;1.33;0.32;;;8.30;99.90;;;;;;4997031;28;20033;-74
2022/02/16 01:29:43;;;;;;;1.48;0.40;;;8.20;99.90;;;;;;5009865;28;20030;-75
2022/02/16 01:32:09;;;;;;;2.45;0.47;;;8.20;99.90;;;;;;4993574;28;20028;-75
2022/02/16 01:34:34;;;;;;;0.77;0.35;;;8.10;99.90;;;;;;4993247;28;20045;-75
2022/02/16 01:37:00;;;;;;;1.88;0.30;;;8.20;99.90;;;;;;5010917;28;20094;-75
2022/02/16 01:39:26;;;;;;;1.77;0.30;;;8.10;99.90;;;;;;4992204;28;20038;-75
2022/02/16 01:41:53;;;;;;;1.75;0.30;;;8.10;99.90;;;;;;5010488;28;20034;-75
2022/02/16 01:44:21;;;;;;;1.77;0.30;;;8.00;99.90;;;;;;5010454;28;20079;-75
2022/02/16 01:47:01;;;;;;;1.95;0.50;;;8.00;99.90;;;;;;4993177;28;20081;-75
2022/02/16 01:49:27;;;;;;;2.15;0.60;;;8.90;99.90;;;;;;4998168;28;20382;-75
2022/02/16 01:51:53;;;;;;;1.38;0.40;;;7.90;99.90;;;;;;5010768;28;20109;-75
2022/02/16 01:54:19;;;;;;;0.93;0.30;;;7.90;99.90;;;;;;5010660;28;20030;-75
2022/02/16 01:56:49;;;;;;;4.95;0.47;;;7.80;99.90;;;;;;4993255;28;20072;-75
2022/02/16 01:59:19;;;;;;;1.23;0.30;;;7.80;99.90;;;;;;4972613;28;20390;-75
2022/02/16 02:01:46;;;;;;;4.72;0.50;;;7.70;99.90;;;;;;4976553;28;20471;-75
2022/02/16 02:04:14;;;;;;;1.15;0.30;;;7.70;99.90;;;;;;4993055;28;20448;-75
2022/02/16 02:06:39;;;;;;;3.30;0.50;;;7.80;99.90;;;;;;5010434;28;20033;-75
2022/02/16 02:09:05;;;;;;;4.40;0.70;;;7.60;99.90;;;;;;4991987;28;20025;-75
2022/02/16 02:11:31;;;;;;;1.05;0.40;;;8.50;99.90;;;;;;5010271;28;20034;-75
2022/02/16 02:13:59;;;;;;;3.28;0.40;;;8.30;99.90;;;;;;5009922;28;20056;-75
2022/02/16 02:16:25;;;;;;;1.33;0.40;;;7.50;99.90;;;;;;5010471;28;20367;-75
2022/02/16 02:18:50;;;;;;;3.30;0.30;;;8.30;99.90;;;;;;5009647;28;20041;-75
2022/02/16 02:21:18;;;;;;;0.73;0.20;;;7.40;99.90;;;;;;5009957;28;20030;-75
2022/02/16 02:23:45;;;;;;;4.13;0.57;;;7.70;99.90;;;;;;5010095;28;20518;-75
2022/02/16 02:26:11;;;;;;;1.77;0.40;;;7.50;99.90;;;;;;5010040;28;20038;-75
2022/02/16 02:28:37;;;;;;;0.73;0.47;;;7.30;99.90;;;;;;5009580;28;20389;-75
2022/02/16 02:31:02;;;;;;;4.20;0.95;;;7.40;99.90;;;;;;5010231;28;20034;-76
2022/02/16 02:33:28;;;;;;;3.95;0.60;;;7.20;99.90;;;;;;4991668;28;20129;-75
2022/02/16 02:35:54;;;;;;;1.73;0.50;;;7.30;99.90;;;;;;5000737;28;20027;-75
2022/02/16 02:38:20;;;;;;;4.43;0.45;;;7.30;99.90;;;;;;5009675;28;20026;-75
2022/02/16 02:40:59;;;;;;;1.48;0.52;;;7.40;99.90;;;;;;5009436;28;20091;-75
2022/02/16 02:43:25;;;;;;;1.95;0.65;;;7.20;99.90;;;;;;4992356;28;20401;-75
2022/02/16 02:45:52;;;;;;;0.95;0.45;;;7.10;99.90;;;;;;4999766;28;20033;-75
2022/02/16 02:48:22;;;;;;;2.58;0.40;;;7.20;99.90;;;;;;4990068;28;20505;-75
2022/02/16 02:50:50;;;;;;;3.60;0.63;;;7.30;99.90;;;;;;4999291;28;20121;-77
2022/02/16 02:53:16;;;;;;;2.63;0.60;;;7.20;99.90;;;;;;4991983;28;20036;-75
2022/02/16 02:55:42;;;;;;;2.45;0.95;;;7.20;99.90;;;;;;4992327;28;20022;-76
2022/02/16 02:58:08;;;;;;;3.45;0.40;;;7.20;99.90;;;;;;5009485;28;20029;-74
2022/02/16 03:00:34;;;;;;;3.15;0.52;;;7.30;99.90;;;;;;5008530;28;20098;-77
2022/02/16 03:02:59;;;;;;;4.28;0.40;;;7.20;99.90;;;;;;5009437;28;20418;-76
2022/02/16 03:05:25;;;;;;;2.67;0.30;;;7.20;99.90;;;;;;5004168;28;20388;-76
2022/02/16 03:07:51;;;;;;;2.50;0.60;;;7.40;99.90;;;;;;4989878;28;20030;-76
2022/02/16 03:10:17;;;;;;;1.88;0.50;;;7.20;99.90;;;;;;4995414;28;20111;-76
2022/02/16 03:12:43;;;;;;;1.13;0.32;;;7.30;99.90;;;;;;4992020;28;20072;-76
2022/02/16 03:15:10;;;;;;;2.55;0.40;;;7.80;99.90;;;;;;5004705;28;20057;-76
2022/02/16 03:17:36;;;;;;;0.60;0.35;;;7.40;99.90;;;;;;4972417;28;20565;-76
2022/02/16 03:20:05;;;;;;;3.75;0.88;;;7.30;99.90;;;;;;4992873;28;20122;-75
2022/02/16 03:22:31;;;;;;;1.80;0.32;;;7.30;99.90;;;;;;4991615;28;20511;-76
2022/02/16 03:24:57;;;;;;;1.25;0.28;;;7.40;99.90;;;;;;5009264;28;20144;-74
2022/02/16 03:27:23;;;;;;;1.25;0.35;;;7.50;99.90;;;;;;5009069;28;20075;-76
2022/02/16 03:29:48;;;;;;;3.45;0.68;;;7.40;99.90;;;;;;4990731;28;20018;-76
2022/02/16 03:32:14;;;;;;;6.15;0.52;;;7.20;99.90;;;;;;5009029;28;20440;-76
2022/02/16 03:34:40;;;;;;;1.02;0.30;;;6.20;99.90;;;;;;5009129;28;20038;-76
2022/02/16 03:37:05;;;;;;;1.08;0.30;;;7.50;99.90;;;;;;4989097;28;20390;-76
2022/02/16 03:39:31;;;;;;;2.55;0.40;;;7.30;99.90;;;;;;4971561;28;20038;-76
2022/02/16 03:41:58;;;;;;;2.67;0.38;;;6.00;99.90;;;;;;5007994;28;20044;-76
2022/02/16 03:44:23;;;;;;;1.05;0.20;;;7.30;99.90;;;;;;5008564;28;20062;-76
2022/02/16 03:46:51;;;;;;;1.40;0.47;;;8.40;99.90;;;;;;4973802;28;20156;-76
2022/02/16 03:49:17;;;;;;;0.50;0.20;;;7.30;99.90;;;;;;4988907;28;20030;-76
2022/02/16 03:51:43;;;;;;;2.85;0.30;;;7.40;99.90;;;;;;4987351;28;20049;-76
2022/02/16 03:54:09;;;;;;;1.95;0.50;;;7.30;99.90;;;;;;5008863;28;20478;-76
2022/02/16 03:56:34;;;;;;;3.25;0.57;;;7.40;99.90;;;;;;4991248;28;20059;-76
2022/02/16 03:59:00;;;;;;;1.13;0.30;;;7.90;99.90;;;;;;5007906;28;20552;-76
2022/02/16 04:01:26;;;;;;;2.38;0.30;;;7.80;99.90;;;;;;5008308;28;20045;-76
2022/02/16 04:03:51;;;;;;;2.10;0.20;;;7.50;99.90;;;;;;5008841;28;20438;-76
2022/02/16 04:06:17;;;;;;;4.15;0.45;;;7.50;99.90;;;;;;4977546;28;20034;-76
2022/02/16 04:08:43;;;;;;;3.47;0.30;;;7.70;99.90;;;;;;4972924;28;20058;-76
2022/02/16 04:11:09;;;;;;;1.95;0.40;;;7.50;99.90;;;;;;4990743;28;20489;-76
2022/02/16 04:13:35;;;;;;;0.93;0.20;;;7.60;99.90;;;;;;5008542;28;20086;-76
2022/02/16 04:16:01;;;;;;;0.73;0.28;;;7.60;99.90;;;;;;5008370;28;20033;-76
2022/02/16 04:18:27;;;;;;;1.52;0.30;;;7.60;99.90;;;;;;5007975;28;20034;-76
2022/02/16 04:20:52;;;;;;;1.00;0.30;;;7.50;99.90;;;;;;5007994;28;20037;-76
2022/02/16 04:23:18;;;;;;;1.45;0.40;;;8.80;99.90;;;;;;5008345;28;20488;-76
2022/02/16 04:25:44;;;;;;;3.17;0.38;;;7.60;99.90;;;;;;5004401;23;20047;-76
2022/02/16 04:28:09;;;;;;;1.13;0.20;;;7.50;99.90;;;;;;4968911;28;20046;-76
2022/02/16 04:30:35;;;;;;;1.70;0.20;;;7.50;99.90;;;;;;4969314;28;20113;-76
2022/02/16 04:33:01;;;;;;;1.25;0.25;;;7.80;99.90;;;;;;4970147;28;20039;-76
2022/02/16 04:35:26;;;;;;;1.45;0.85;;;7.40;99.90;;;;;;4969568;28;20120;-75
2022/02/16 04:37:52;;;;;;;1.35;0.47;;;7.40;99.90;;;;;;4970133;28;20027;-76
2022/02/16 04:40:27;;;;;;;1.08;0.20;;;7.50;99.90;;;;;;4969150;28;20088;-76
2022/02/16 04:42:53;;;;;;;1.30;0.30;;;7.40;99.90;;;;;;4970110;28;20100;-76
2022/02/16 04:45:18;;;;;;;1.25;0.50;;;7.40;99.90;;;;;;4969195;28;20478;-76
2022/02/16 04:47:45;;;;;;;1.08;0.43;;;8.40;99.90;;;;;;4969974;28;20046;-76
2022/02/16 04:50:11;;;;;;;1.42;0.20;;;7.40;99.90;;;;;;4969028;28;20418;-76
2022/02/16 04:52:37;;;;;;;5.82;0.40;;;7.40;99.90;;;;;;4969499;28;20034;-76
2022/02/16 04:55:08;;;;;;;1.35;0.28;;;8.50;99.90;;;;;;4968733;28;20078;-76
2022/02/16 04:57:34;;;;;;;4.78;0.60;;;7.50;99.90;;;;;;4955363;28;20023;-76
2022/02/16 05:00:00;;;;;;;0.52;0.22;;;7.50;99.90;;;;;;4972517;28;20584;-76
2022/02/16 05:02:26;;;;;;;2.25;0.30;;;7.40;99.90;;;;;;4955804;28;20105;-77
2022/02/16 05:04:53;;;;;;;0.57;0.20;;;7.50;99.90;;;;;;4972918;28;20093;-77
2022/02/16 05:07:19;;;;;;;2.38;0.20;;;7.50;99.90;;;;;;4972958;28;20113;-76
2022/02/16 05:09:45;;;;;;;2.00;0.47;;;7.20;99.90;;;;;;4972327;28;20039;-76
2022/02/16 05:12:11;;;;;;;0.98;0.20;;;7.50;99.90;;;;;;4972636;28;20080;-77
2022/02/16 05:14:36;;;;;;;3.30;0.45;;;7.50;99.90;;;;;;4972864;28;20423;-76
2022/02/16 05:17:02;;;;;;;0.93;0.30;;;7.50;99.90;;;;;;4972568;28;20031;-76
2022/02/16 05:19:28;;;;;;;1.10;0.40;;;7.60;99.90;;;;;;4972101;28;20084;-76
2022/02/16 05:21:53;;;;;;;2.53;0.65;;;8.00;99.90;;;;;;4972748;28;20031;-76
2022/02/16 05:24:20;;;;;;;0.38;0.13;;;8.70;99.90;;;;;;4972796;28;20035;-76
2022/02/16 05:26:46;;;;;;;2.95;0.30;;;7.60;99.90;;;;;;4972766;28;20041;-77
2022/02/16 05:29:12;;;;;;;0.52;0.30;;;7.70;99.90;;;;;;4971787;28;20049;-76
2022/02/16 05:31:37;;;;;;;1.67;0.30;;;8.70;99.90;;;;;;4972830;28;20026;-77
2022/02/16 05:34:03;;;;;;;1.60;0.28;;;8.40;99.90;;;;;;4972792;28;20034;-77
2022/02/16 05:36:29;;;;;;;0.68;0.15;;;7.60;99.90;;;;;;4972059;28;20076;-77
2022/02/16 05:38:55;;;;;;;1.65;0.20;;;7.60;99.90;;;;;;4971835;28;20518;-77
2022/02/16 05:41:20;;;;;;;1.23;0.43;;;8.50;99.90;;;;;;4972419;28;20067;-77
2022/02/16 05:43:46;;;;;;;1.23;0.28;;;7.00;99.90;;;;;;4955383;28;20023;-77
2022/02/16 05:46:11;;;;;;;0.75;0.30;;;7.80;99.90;;;;;;4971924;28;20038;-77
2022/02/16 05:48:37;;;;;;;1.42;0.40;;;8.60;99.90;;;;;;4970378;28;20480;-77
2022/02/16 05:51:03;;;;;;;1.80;0.40;;;8.50;99.90;;;;;;4972071;28;20046;-77
2022/02/16 05:53:29;;;;;;;0.40;0.10;;;7.70;99.90;;;;;;4972176;28;20035;-76
2022/02/16 05:55:55;;;;;;;2.15;0.25;;;7.60;99.90;;;;;;4971890;28;20092;-77
2022/02/16 05:58:20;;;;;;;1.52;0.35;;;8.00;99.90;;;;;;4972128;28;20085;-76
2022/02/16 06:00:46;;;;;;;1.20;0.20;;;7.90;99.90;;;;;;4971366;28;20039;-76
2022/02/16 06:03:12;;;;;;;0.40;0.20;;;7.90;99.90;;;;;;4972238;28;20395;-76
2022/02/16 06:05:37;;;;;;;0.30;0.20;;;7.90;99.90;;;;;;4971795;28;20031;-77
2022/02/16 06:08:03;;;;;;;0.73;0.22;;;8.00;99.90;;;;;;4972270;28;20076;-76
2022/02/16 06:10:30;;;;;;;1.30;0.30;;;8.10;99.90;;;;;;4971359;28;20077;-77
2022/02/16 06:12:58;;;;;;;0.52;0.30;;;8.20;99.90;;;;;;4972383;28;20042;-77
2022/02/16 06:15:24;;;;;;;1.77;0.20;;;8.40;99.90;;;;;;4966277;28;20023;-77
2022/02/16 06:17:49;;;;;;;0.73;0.20;;;8.20;99.90;;;;;;4953013;29;20043;-76
2022/02/16 06:20:15;;;;;;;0.50;0.03;;;8.80;99.90;;;;;;4965359;28;20045;-76
2022/02/16 06:22:41;;;;;;;1.52;0.20;;;8.20;99.90;;;;;;4973321;28;20033;-76
2022/02/16 06:25:07;;;;;;;3.15;0.22;;;8.10;99.90;;;;;;4978895;28;20019;-76
2022/02/16 06:27:34;;;;;;;2.67;0.25;;;8.10;99.90;;;;;;4961164;28;20029;-76
2022/02/16 06:30:01;;;;;;;1.45;0.20;;;8.10;99.90;;;;;;4963045;28;20034;-76
2022/02/16 06:32:27;;;;;;;0.38;0.15;;;8.30;99.90;;;;;;4972197;28;20091;-76
2022/02/16 06:34:52;;;;;;;0.30;0.20;;;8.10;99.90;;;;;;4971650;28;20035;-76
2022/02/16 06:37:18;;;;;;;1.45;0.30;;;8.30;99.90;;;;;;4971983;28;20031;-76
2022/02/16 06:39:44;;;;;;;0.70;0.10;;;9.30;99.90;;;;;;4971241;28;20031;-76
2022/02/16 06:42:11;;;;;;;0.88;0.20;;;8.20;99.90;;;;;;4971739;28;20080;-74
2022/02/16 06:44:37;;;;;;;1.38;0.22;;;8.50;99.90;;;;;;4971409;28;20395;-76
2022/02/16 06:47:03;;;;;;;1.15;0.30;;;8.40;99.90;;;;;;4969625;28;20029;-76
2022/02/16 06:49:28;;;;;;;0.40;0.20;;;8.40;99.90;;;;;;4968963;28;20062;-77
2022/02/16 06:51:54;;;;;;;1.10;0.28;;;8.40;99.90;;;;;;4968110;28;20031;-77
2022/02/16 06:54:20;;;;;;;0.47;0.17;;;8.30;99.90;;;;;;4952363;29;20031;-77
2022/02/16 06:56:46;;;;;;;0.40;0.10;;;9.10;99.90;;;;;;4968284;28;20077;-76
2022/02/16 06:59:12;;;;;;;1.05;0.10;;;8.30;99.90;;;;;;4953669;28;20503;-76
2022/02/16 07:01:38;;;;;;;0.80;0.20;;;9.00;99.90;;;;;;4971611;28;20070;-76
2022/02/16 07:04:04;;;;;;;0.98;0.10;;;8.30;99.90;;;;;;4971549;28;20031;-76
2022/02/16 07:06:31;;;;;;;0.40;0.20;;;8.20;99.90;;;;;;4971086;28;20088;-78
2022/02/16 07:08:57;;;;;;;0.82;0.10;;;8.20;99.90;;;;;;4970560;28;20379;-77
2022/02/16 07:11:23;;;;;;;0.95;0.30;;;8.30;99.90;;;;;;4971107;28;20027;-78
2022/02/16 07:13:48;;;;;;;0.10;0.10;;;8.30;99.90;;;;;;4954315;28;20563;-78
2022/02/16 07:16:14;;;;;;;0.35;0.20;;;8.30;99.90;;;;;;4970982;28;20042;-78
2022/02/16 07:18:40;;;;;;;0.50;0.20;;;8.30;99.90;;;;;;4955605;28;20106;-77
2022/02/16 07:21:08;;;;;;;0.32;0.20;;;8.30;99.90;;;;;;4940085;28;20069;-78
2022/02/16 07:23:35;;;;;;;0.20;0.15;;;9.30;99.90;;;;;;4973021;28;20023;-78
2022/02/16 07:26:00;;;;;;;0.20;0.10;;;8.20;99.90;;;;;;4971948;28;20042;-78
2022/02/16 07:28:27;;;;;;;0.65;0.10;;;8.60;99.90;;;;;;4971786;28;20027;-79
2022/02/16 07:30:52;;;;;;;0.65;0.10;;;8.30;99.90;;;;;;4972523;28;20035;-80
2022/02/16 07:33:18;;;;;;;0.70;0.25;;;8.40;99.90;;;;;;4973798;28;20104;-78
2022/02/16 07:35:44;;;;;;;0.35;0.10;;;8.40;99.90;;;;;;4972469;28;20538;-79
2022/02/16 07:38:10;;;;;;;0.40;0.15;;;8.70;99.90;;;;;;4972474;28;20403;-79
2022/02/16 07:40:36;;;;;;;0.17;0.10;;;8.60;99.90;;;;;;4971175;28;20039;-78
2022/02/16 07:43:01;;;;;;;0.25;0.10;;;8.60;99.90;;;;;;4954847;28;20027;-79
2022/02/16 07:45:27;;;;;;;1.58;0.10;;;8.40;99.90;;;;;;4971102;28;20027;-79
2022/02/16 07:47:52;;;;;;;0.38;0.20;;;8.50;99.90;;;;;;4971491;28;20050;-78
2022/02/16 07:50:18;;;;;;;0.57;0.20;;;8.60;99.90;;;;;;4971457;28;20491;-79
2022/02/16 07:52:45;;;;;;;0.40;0.10;;;8.40;99.90;;;;;;4938688;28;20039;-79
2022/02/16 07:55:11;;;;;;;0.20;0.10;;;8.70;99.90;;;;;;4954727;28;20031;-78
2022/02/16 07:57:36;;;;;;;0.10;0.10;;;8.90;99.90;;;;;;4971333;28;20445;-78
2022/02/16 08:00:03;;;;;;;2.83;0.17;;;8.40;99.90;;;;;;4970359;28;20031;-78
2022/02/16 08:02:30;;;;;;;0.50;0.10;;;8.30;99.90;;;;;;4971397;28;20062;-78
2022/02/16 08:04:56;;;;;;;0.40;0.00;;;8.80;99.90;;;;;;4970575;28;20027;-79
2022/02/16 08:07:21;;;;;;;0.47;0.10;;;8.40;99.90;;;;;;4970968;28;20106;-78
2022/02/16 08:09:48;;;;;;;0.00;0.00;;;8.90;99.90;;;;;;4969379;28;20048;-78
2022/02/16 08:12:14;;;;;;;0.13;0.10;;;8.40;99.90;;;;;;4971089;28;20438;-80
2022/02/16 08:14:40;;;;;;;0.22;0.17;;;7.90;99.90;;;;;;4970859;28;20087;-78
2022/02/16 08:17:06;;;;;;;1.55;0.28;;;8.20;99.90;;;;;;4972861;28;20434;-79
2022/02/16 08:19:31;;;;;;;0.40;0.10;;;8.30;99.90;;;;;;4970303;28;20035;-77
2022/02/16 08:21:58;;;;;;;0.10;0.03;;;8.40;99.90;;;;;;4970854;28;20164;-78
2022/02/16 08:24:25;;;;;;;0.20;0.20;;;8.40;99.90;;;;;;4956465;28;20034;-78
2022/02/16 08:26:51;;;;;;;0.10;0.00;;;8.40;99.90;;;;;;4970427;28;20137;-78
2022/02/16 08:29:17;;;;;;;0.30;0.10;;;8.90;99.90;;;;;;4969406;28;20031;-78
2022/02/16 08:31:45;;;;;;;0.10;0.10;;;8.60;99.90;;;;;;4966173;28;20087;-77
2022/02/16 08:34:11;;;;;;;0.22;0.10;;;8.50;99.90;;;;;;4940583;28;20051;-78
2022/02/16 08:36:37;;;;;;;0.10;0.00;;;8.40;99.90;;;;;;4973207;28;20050;-77
2022/02/16 08:39:03;;;;;;;1.27;0.10;;;8.60;99.90;;;;;;4973051;28;20424;-77
2022/02/16 08:41:29;;;;;;;0.55;0.10;;;8.60;99.90;;;;;;4974212;28;20498;-79
2022/02/16 08:43:55;;;;;;;0.47;0.15;;;8.90;99.90;;;;;;4973786;28;20113;-78
2022/02/16 08:46:21;;;;;;;0.20;0.10;;;8.80;99.90;;;;;;4975203;28;20514;-79
2022/02/16 08:48:46;;;;;;;0.57;0.10;;;9.00;99.90;;;;;;4976405;28;20924;-79
2022/02/16 08:51:12;;;;;;;0.10;0.03;;;8.90;99.90;;;;;;4977397;28;20509;-79
2022/02/16 08:53:38;;;;;;;0.00;0.00;;;9.10;99.90;;;;;;4958179;28;20034;-79
2022/02/16 08:56:04;;;;;;;0.17;0.10;;;9.10;99.90;;;;;;4958011;28;20031;-78
2022/02/16 08:58:29;;;;;;;0.10;0.10;;;9.00;99.90;;;;;;4973275;28;20123;-77
2022/02/16 09:00:56;;;;;;;0.30;0.03;;;9.10;99.90;;;;;;4951994;28;20491;-77
2022/02/16 09:03:22;;;;;;;0.00;0.00;;;9.20;99.90;;;;;;4968737;28;20023;-77
2022/02/16 09:05:48;;;;;;;0.05;0.00;;;9.20;99.90;;;;;;4968901;28;20118;-76
2022/02/16 09:08:14;;;;;;;0.17;0.10;;;9.20;99.90;;;;;;4952272;28;20034;-77
2022/02/16 09:10:40;;;;;;;0.20;0.10;;;9.40;99.90;;;;;;4967928;28;20035;-77
2022/02/16 09:13:06;;;;;;;0.43;0.20;;;9.40;99.90;;;;;;4964954;28;20076;-76
2022/02/16 09:15:31;;;;;;;0.40;0.20;;;10.00;99.90;;;;;;4951992;28;20091;-77
2022/02/16 09:17:57;;;;;;;0.32;0.08;;;10.60;99.90;;;;;;4951279;28;20087;-77
2022/02/16 09:20:24;;;;;;;0.30;0.10;;;10.30;99.90;;;;;;4967720;28;20034;-77
2022/02/16 09:22:51;;;;;;;1.00;0.10;;;10.50;99.90;;;;;;4968936;28;20034;-77
2022/02/16 09:25:16;;;;;;;0.22;0.05;;;10.10;99.90;;;;;;4967580;28;20031;-77
2022/02/16 09:27:42;;;;;;;0.10;0.08;;;9.50;99.90;;;;;;4969325;28;20034;-77
2022/02/16 09:30:10;;;;;;;0.20;0.08;;;10.60;99.90;;;;;;4950865;28;20031;-77
2022/02/16 09:32:35;;;;;;;0.20;0.10;;;10.00;99.90;;;;;;4958069;28;20163;-77
2022/02/16 09:35:01;;;;;;;0.00;0.00;;;10.80;99.90;;;;;;4953055;28;20145;-77
2022/02/16 09:37:27;;;;;;;0.10;0.10;;;9.90;99.90;;;;;;4969501;28;20038;-77
2022/02/16 09:39:53;;;;;;;1.17;0.10;;;11.20;99.90;;;;;;4970443;28;20041;-77
2022/02/16 09:42:19;;;;;;;0.45;0.10;;;10.60;99.90;;;;;;4966812;28;20022;-77
2022/02/16 09:44:53;;;;;;;0.80;0.10;;;10.20;99.90;;;;;;4960550;28;20025;-77
2022/02/16 09:47:19;;;;;;;0.50;0.35;;;10.10;99.90;;;;;;4967968;28;20121;-77
2022/02/16 09:49:45;;;;;;;0.15;0.05;;;10.10;99.90;;;;;;4967301;28;20462;-77
2022/02/16 09:52:12;;;;;;;0.17;0.10;;;10.20;99.90;;;;;;4967193;28;20831;-77
2022/02/16 09:54:38;;;;;;;0.47;0.10;;;10.10;99.90;;;;;;4966549;28;20121;-77
2022/02/16 09:57:05;;;;;;;0.20;0.13;;;10.10;99.90;;;;;;4971939;28;20038;-76
2022/02/16 09:59:31;;;;;;;0.15;0.00;;;10.50;99.90;;;;;;4954282;28;20027;-77
2022/02/16 10:02:03;;;;;;;0.13;0.10;;;10.20;99.90;;;;;;4971503;28;20538;-77
2022/02/16 10:04:31;;;;;;;0.98;0.20;;;10.30;99.90;;;;;;4971958;28;20030;-77
2022/02/16 10:06:57;;;;;;;0.40;0.17;;;10.70;99.90;;;;;;4972024;28;20055;-77
2022/02/16 10:09:29;;;;;;;2.72;0.20;;;11.40;99.90;;;;;;4970935;28;20035;-77
2022/02/16 10:11:57;;;;;;;0.10;0.10;;;10.50;99.90;;;;;;4970851;28;20097;-77
2022/02/16 10:14:34;;;;;;;0.80;0.20;;;11.30;99.90;;;;;;4970274;28;20122;-76
2022/02/16 10:17:17;;;;;;;0.00;0.00;;;10.70;99.90;;;;;;4971354;28;20041;-76
2022/02/16 10:19:48;;;;;;;0.05;0.05;;;10.70;99.90;;;;;;4971478;28;20069;-76
2022/02/16 10:22:13;;;;;;;0.30;0.10;;;10.60;99.90;;;;;;4971774;28;20045;-76
2022/02/16 10:24:39;;;;;;;1.67;0.10;;;11.00;99.90;;;;;;4971970;28;20554;-76
2022/02/16 10:27:05;;;;;;;0.45;0.10;;;10.90;99.90;;;;;;4954394;28;20042;-76
2022/02/16 10:29:34;;;;;;;0.40;0.10;;;10.90;99.90;;;;;;4984614;23;20043;-78
2022/02/16 10:32:00;;;;;;;0.30;0.10;;;11.10;99.90;;;;;;4972102;28;20057;-77
2022/02/16 10:34:47;;;;;;;0.32;0.00;;;11.50;99.90;;;;;;4972634;28;20031;-77
2022/02/16 10:37:14;;;;;;;0.00;0.00;;;12.00;99.90;;;;;;4964665;28;20065;-78
2022/02/16 10:39:41;;;;;;;1.63;0.35;;;12.80;99.90;;;;;;4972841;28;20038;-78
2022/02/16 10:42:11;;;;;;;0.38;0.13;;;12.30;99.90;;;;;;4984371;28;20035;-77
2022/02/16 10:44:37;;;;;;;0.17;0.10;;;12.60;99.90;;;;;;4971982;28;20055;-77
2022/02/16 10:47:11;;;;;;;0.52;0.10;;;12.50;99.90;;;;;;4972460;28;20038;-78
2022/02/16 10:49:43;;;;;;;0.13;0.10;;;12.20;99.90;;;;;;4966089;28;20127;-77
2022/02/16 10:52:20;;;;;;;1.05;0.10;;;12.60;99.90;;;;;;4975298;28;20027;-77
2022/02/16 10:54:58;;;;;;;0.00;0.00;;;12.60;99.90;;;;;;4956582;28;20562;-77
2022/02/16 10:57:24;;;;;;;0.55;0.20;;;12.60;99.90;;;;;;4974459;28;20092;-77
2022/02/16 10:59:49;;;;;;;0.57;0.10;;;13.10;99.90;;;;;;4974425;28;20022;-77
2022/02/16 11:02:18;;;;;;;0.80;0.13;;;13.30;99.90;;;;;;4978761;28;20022;-77
2022/02/16 11:04:47;;;;;;;0.88;0.10;;;13.00;99.90;;;;;;4974438;28;20022;-77
2022/02/16 11:07:18;;;;;;;0.30;0.15;;;12.80;99.90;;;;;;4973385;28;20022;-76
2022/02/16 11:09:47;;;;;;;1.85;0.10;;;13.20;99.90;;;;;;4979839;28;20056;-77
2022/02/16 11:12:12;;;;;;;0.10;0.10;;;12.70;99.90;;;;;;4972538;28;20038;-77
2022/02/16 11:14:41;;;;;;;1.75;0.00;;;13.50;99.90;;;;;;4988992;28;20502;-76
2022/02/16 11:17:09;;;;;;;1.00;0.20;;;12.50;99.90;;;;;;4973015;28;20392;-76
2022/02/16 11:19:36;;;;;;;1.50;0.35;;;12.60;99.90;;;;;;4980839;28;20099;-79
2022/02/16 11:22:11;;;;;;;0.05;0.03;;;12.30;99.90;;;;;;5000425;28;20054;-78
2022/02/16 11:24:38;;;;;;;2.40;0.20;;;12.30;99.90;;;;;;4992963;28;20737;-78
2022/02/16 11:27:26;;;;;;;0.52;0.10;;;12.00;99.90;;;;;;4977079;28;20027;-77
2022/02/16 11:29:53;;;;;;;0.45;0.03;;;11.80;99.90;;;;;;4967866;28;20402;-78
2022/02/16 11:32:21;;;;;;;0.90;0.17;;;11.40;99.90;;;;;;4978012;28;20038;-78
2022/02/16 11:35:10;;;;;;;0.47;0.10;;;11.20;99.90;;;;;;4993412;28;20026;-78
2022/02/16 11:37:40;;;;;;;0.35;0.08;;;11.20;99.90;;;;;;4976045;28;20056;-77
2022/02/16 11:40:08;;;;;;;0.15;0.10;;;11.10;99.90;;;;;;4984699;28;20070;-77
2022/02/16 11:42:47;;;;;;;0.52;0.20;;;11.20;99.90;;;;;;4977192;28;20046;-78
2022/02/16 11:45:14;;;;;;;0.10;0.10;;;11.20;99.90;;;;;;4988014;28;20052;-78
2022/02/16 11:47:42;;;;;;;0.03;0.00;;;11.10;99.90;;;;;;4972800;28;20554;-77
2022/02/16 11:50:17;;;;;;;0.10;0.10;;;11.00;99.90;;;;;;4966935;28;20066;-78
2022/02/16 11:52:57;;;;;;;0.10;0.08;;;10.70;99.90;;;;;;4969797;28;20014;-77
2022/02/16 11:55:33;;;;;;;0.90;0.20;;;10.70;99.90;;;;;;4970117;28;20054;-78
2022/02/16 11:58:01;;;;;;;0.28;0.10;;;10.70;99.90;;;;;;4976168;28;20144;-79
2022/02/16 12:00:28;;;;;;;1.65;0.13;;;11.00;99.90;;;;;;4980970;28;20055;-76
2022/02/16 12:03:05;;;;;;;0.08;0.08;;;10.60;99.90;;;;;;4933763;28;20053;-76
2022/02/16 12:06:01;;;;;;;1.15;0.15;;;10.40;99.90;;;;;;4978686;28;20023;-76
2022/02/16 12:08:40;;;;;;;0.47;0.10;;;10.30;99.90;;;;;;4985478;28;20030;-75
2022/02/16 12:11:19;;;;;;;0.10;0.10;;;10.40;99.90;;;;;;4957914;28;20034;-76
2022/02/16 12:14:04;;;;;;;1.27;0.10;;;10.80;99.90;;;;;;4975542;28;20494;-76
2022/02/16 12:16:42;;;;;;;0.08;0.05;;;10.60;99.90;;;;;;4971168;28;20031;-76
2022/02/16 12:19:10;;;;;;;0.10;0.10;;;10.60;99.90;;;;;;4948263;28;20031;-76
2022/02/16 12:21:41;;;;;;;0.10;0.00;;;10.70;99.90;;;;;;4978529;28;20030;-76
2022/02/16 12:24:12;;;;;;;0.30;0.10;;;10.60;99.90;;;;;;4985112;28;20492;-76
2022/02/16 12:26:51;;;;;;;0.20;0.10;;;10.50;99.90;;;;;;4985657;28;20038;-76
2022/02/16 12:29:24;;;;;;;0.30;0.10;;;10.30;99.90;;;;;;4966064;28;20452;-76
2022/02/16 12:31:55;;;;;;;1.92;0.17;;;10.90;99.90;;;;;;4977146;28;20062;-76
2022/02/16 12:34:29;;;;;;;0.35;0.13;;;10.70;99.90;;;;;;4982016;28;20023;-76
2022/02/16 12:37:07;;;;;;;0.17;0.10;;;10.80;99.90;;;;;;4965878;28;20081;-76
2022/02/16 12:39:33;;;;;;;0.28;0.15;;;10.80;99.90;;;;;;4964898;28;20027;-76
2022/02/16 12:42:10;;;;;;;0.03;0.03;;;11.60;99.90;;;;;;4981364;28;20566;-76
2022/02/16 12:44:38;;;;;;;0.10;0.10;;;10.90;99.90;;;;;;4972061;28;20034;-77
2022/02/16 12:47:07;;;;;;;0.15;0.10;;;11.00;99.90;;;;;;4985026;28;20034;-77
2022/02/16 12:49:33;;;;;;;2.00;0.17;;;11.10;99.90;;;;;;4976018;28;20042;-77
2022/02/16 12:52:00;;;;;;;0.60;0.20;;;11.10;99.90;;;;;;4965205;28;20123;-77
2022/02/16 12:54:29;;;;;;;1.38;0.15;;;11.50;99.90;;;;;;4974929;28;20035;-76
2022/02/16 12:57:03;;;;;;;1.90;0.20;;;11.00;99.90;;;;;;4962125;28;20027;-76